createdAt,value
2018-08-08T00:01:54.464Z,22.50
2018-08-08T00:04:21.517Z,22.70
2018-08-08T00:06:48.561Z,20.23
2018-08-08T00:09:15.609Z,24.40
2018-08-08T00:11:42.762Z,21.48
2018-08-08T00:14:09.814Z,22.20
2018-08-08T00:16:36.857Z,20.37
2018-08-08T00:19:03.931Z,25.08
2018-08-08T00:21:30.898Z,25.30
2018-08-08T00:23:58.310Z,21.62
2018-08-08T00:26:25.359Z,19.62
2018-08-08T00:28:52.412Z,20.27
2018-08-08T00:31:20.378Z,21.73
2018-08-08T00:33:47.430Z,24.63
2018-08-08T00:36:14.480Z,23.23
2018-08-08T00:38:42.446Z,24.52
2018-08-08T00:41:09.816Z,22.30
2018-08-08T00:43:36.855Z,24.12
2018-08-08T00:46:04.620Z,22.90
2018-08-08T00:48:31.665Z,20.62
2018-08-08T00:50:58.713Z,21.33
2018-08-08T00:53:26.189Z,22.02
2018-08-08T00:55:53.225Z,22.25
2018-08-08T00:58:20.268Z,21.52
2018-08-08T01:00:47.316Z,22.25
2018-08-08T01:03:14.373Z,24.00
2018-08-08T01:05:41.414Z,21.58
2018-08-08T01:08:08.373Z,21.95
2018-08-08T01:10:35.409Z,22.75
2018-08-08T01:13:02.457Z,22.92
2018-08-08T01:15:31.144Z,22.08
2018-08-08T01:17:58.199Z,24.65
2018-08-08T01:20:25.242Z,23.60
2018-08-08T01:22:52.290Z,21.62
2018-08-08T01:25:20.265Z,22.87
2018-08-08T01:27:47.308Z,23.98
2018-08-08T01:30:14.358Z,22.40
2018-08-08T01:32:41.412Z,22.45
2018-08-08T01:35:08.762Z,22.67
2018-08-08T01:37:35.810Z,22.67
2018-08-08T01:40:02.964Z,22.80
2018-08-08T01:42:30.019Z,24.17
2018-08-08T01:44:57.058Z,27.27
2018-08-08T01:47:25.243Z,20.65
2018-08-08T01:49:52.284Z,19.60
2018-08-08T01:52:19.334Z,28.25
2018-08-08T01:54:46.387Z,20.95
2018-08-08T01:57:13.429Z,22.62
2018-08-08T01:59:40.887Z,24.90
2018-08-08T02:02:07.887Z,23.00
2018-08-08T02:04:34.989Z,22.73
2018-08-08T02:07:03.622Z,22.33
2018-08-08T02:09:30.637Z,21.15
2018-08-08T02:11:57.672Z,21.17
2018-08-08T02:14:25.534Z,23.52
2018-08-08T02:16:52.588Z,21.87
2018-08-08T02:19:19.632Z,22.10
2018-08-08T02:21:47.601Z,22.02
2018-08-08T02:24:14.654Z,21.00
2018-08-08T02:26:41.699Z,24.33
2018-08-08T02:29:09.573Z,21.37
2018-08-08T02:31:36.833Z,20.17
2018-08-08T02:34:03.874Z,23.40
2018-08-08T02:36:31.026Z,20.83
2018-08-08T02:38:58.069Z,21.02
2018-08-08T02:41:25.117Z,23.08
2018-08-08T02:43:52.174Z,21.52
2018-08-08T02:46:19.216Z,21.20
2018-08-08T02:48:46.263Z,22.45
2018-08-08T02:51:13.316Z,20.65
2018-08-08T02:53:40.360Z,20.17
2018-08-08T02:56:07.408Z,20.77
2018-08-08T02:58:34.867Z,22.25
2018-08-08T03:01:01.921Z,21.85
2018-08-08T03:03:28.963Z,26.65
2018-08-08T03:05:56.016Z,20.77
2018-08-08T03:08:23.122Z,21.05
2018-08-08T03:10:50.111Z,20.37
2018-08-08T03:13:17.158Z,19.48
2018-08-08T03:15:44.214Z,20.95
2018-08-08T03:18:11.256Z,20.67
2018-08-08T03:20:38.304Z,21.90
2018-08-08T03:23:05.358Z,20.92
2018-08-08T03:25:32.402Z,21.27
2018-08-08T03:27:59.451Z,20.12
2018-08-08T03:30:26.505Z,20.58
2018-08-08T03:32:53.657Z,20.65
2018-08-08T03:35:20.652Z,19.33
2018-08-08T03:37:47.650Z,23.08
2018-08-08T03:40:14.741Z,19.52
2018-08-08T03:42:41.846Z,19.65
2018-08-08T03:45:08.851Z,19.52
2018-08-08T03:47:37.067Z,19.40
2018-08-08T03:50:05.346Z,19.65
2018-08-08T03:52:32.400Z,19.33
2018-08-08T03:54:59.453Z,19.42
2018-08-08T03:57:27.207Z,18.17
2018-08-08T03:59:54.256Z,18.48
2018-08-08T04:02:21.311Z,19.23
2018-08-08T04:04:48.791Z,18.08
2018-08-08T04:07:15.811Z,18.95
2018-08-08T04:09:42.763Z,19.35
2018-08-08T04:12:10.528Z,20.30
2018-08-08T04:14:37.571Z,17.95
2018-08-08T04:17:05.349Z,19.23
2018-08-08T04:19:32.534Z,19.75
2018-08-08T04:24:32.935Z,20.20
2018-08-08T04:27:00.290Z,20.60
2018-08-08T04:29:27.343Z,21.85
2018-08-08T04:31:54.388Z,19.05
2018-08-08T04:34:21.437Z,19.70
2018-08-08T04:36:48.996Z,21.15
2018-08-08T04:39:16.046Z,22.30
2018-08-08T04:41:43.107Z,18.58
2018-08-08T04:44:10.251Z,18.92
2018-08-08T04:46:37.292Z,18.80
2018-08-08T04:49:04.344Z,21.98
2018-08-08T04:51:31.396Z,18.50
2018-08-08T04:53:58.441Z,17.55
2018-08-08T04:56:25.493Z,18.83
2018-08-08T04:58:52.483Z,18.30
2018-08-08T05:01:19.694Z,17.98
2018-08-08T05:03:46.740Z,19.55
2018-08-08T05:06:13.789Z,15.98
2018-08-08T05:08:40.840Z,18.20
2018-08-08T05:11:07.895Z,17.48
2018-08-08T05:13:34.931Z,18.40
2018-08-08T05:16:01.990Z,18.42
2018-08-08T05:18:29.028Z,22.27
2018-08-08T05:20:56.028Z,21.15
2018-08-08T05:23:23.022Z,17.83
2018-08-08T05:25:50.070Z,16.80
2018-08-08T05:28:18.764Z,17.15
2018-08-08T05:30:46.298Z,18.85
2018-08-08T05:33:13.271Z,18.45
2018-08-08T05:35:40.315Z,17.40
2018-08-08T05:38:07.363Z,19.12
2018-08-08T05:40:34.417Z,21.55
2018-08-08T05:43:01.550Z,21.05
2018-08-08T05:45:28.437Z,24.40
2018-08-08T05:47:55.405Z,27.13
2018-08-08T05:50:22.503Z,45.33
2018-08-08T05:52:49.557Z,39.92
2018-08-08T05:55:16.601Z,32.70
2018-08-08T05:57:43.651Z,37.55
2018-08-08T06:00:10.703Z,32.22
2018-08-08T06:02:37.701Z,21.23
2018-08-08T06:05:05.410Z,26.05
2018-08-08T06:07:34.097Z,18.83
2018-08-08T06:10:01.098Z,18.12
2018-08-08T06:12:29.760Z,17.83
2018-08-08T06:14:56.882Z,20.50
2018-08-08T06:17:23.934Z,22.17
2018-08-08T06:19:51.854Z,17.98
2018-08-08T06:22:18.845Z,18.20
2018-08-08T06:24:45.900Z,17.65
2018-08-08T06:27:12.943Z,18.48
2018-08-08T06:29:39.992Z,18.10
2018-08-08T06:32:07.050Z,17.42
2018-08-08T06:34:34.090Z,18.12
2018-08-08T06:37:02.470Z,18.98
2018-08-08T06:39:29.518Z,16.92
2018-08-08T06:41:56.576Z,16.95
2018-08-08T06:44:23.922Z,17.98
2018-08-08T06:46:50.971Z,18.35
2018-08-08T06:49:18.025Z,17.05
2018-08-08T06:51:45.068Z,19.70
2018-08-08T06:54:12.118Z,19.17
2018-08-08T06:56:39.171Z,22.02
2018-08-08T06:59:06.215Z,20.23
2018-08-08T07:01:33.262Z,19.67
2018-08-08T07:04:00.413Z,18.80
2018-08-08T07:06:27.468Z,19.50
2018-08-08T07:08:54.619Z,20.10
2018-08-08T07:11:21.662Z,20.58
2018-08-08T07:13:49.863Z,23.10
2018-08-08T07:16:16.886Z,20.65
2018-08-08T07:18:43.934Z,20.33
2018-08-08T07:21:10.988Z,22.98
2018-08-08T07:23:38.030Z,28.25
2018-08-08T07:26:05.080Z,23.10
2018-08-08T07:28:33.301Z,24.48
2018-08-08T07:31:00.406Z,28.52
2018-08-08T07:33:27.557Z,19.20
2018-08-08T07:35:54.605Z,20.02
2018-08-08T07:38:27.594Z,23.73
2018-08-08T07:40:54.648Z,18.77
2018-08-08T07:43:21.691Z,20.60
2018-08-08T07:45:49.097Z,23.40
2018-08-08T07:48:18.018Z,25.33
2018-08-08T07:50:45.193Z,20.15
2018-08-08T07:53:12.247Z,19.48
2018-08-08T07:55:39.296Z,18.73
2018-08-08T07:58:07.077Z,17.12
2018-08-08T08:00:34.007Z,16.83
2018-08-08T08:03:01.055Z,18.58
2018-08-08T08:05:28.122Z,25.08
2018-08-08T08:07:55.152Z,17.15
2018-08-08T08:10:22.503Z,16.15
2018-08-08T08:12:49.559Z,16.27
2018-08-08T08:15:16.605Z,17.17
2018-08-08T08:17:43.648Z,15.88
2018-08-08T08:20:35.794Z,17.00
2018-08-08T08:50:11.661Z,23.12
2018-08-08T08:52:38.690Z,21.87
2018-08-08T08:55:05.744Z,22.23
2018-08-08T08:57:32.787Z,19.30
2018-08-08T08:59:59.937Z,18.92
2018-08-08T09:02:27.045Z,18.02
2018-08-08T09:04:54.039Z,20.62
2018-08-08T09:07:21.321Z,20.58
2018-08-08T09:09:48.439Z,21.00
2018-08-08T09:12:15.696Z,18.98
2018-08-08T09:17:28.939Z,19.20
2018-08-08T09:22:42.083Z,19.62
2018-08-08T09:28:04.339Z,17.37
2018-08-08T09:30:31.770Z,18.12
2018-08-08T09:32:59.056Z,17.87
2018-08-08T09:35:32.595Z,16.75
2018-08-08T09:38:05.286Z,18.50
2018-08-08T09:40:48.869Z,17.65
2018-08-08T09:43:24.218Z,18.58
2018-08-08T09:45:53.617Z,17.80
2018-08-08T09:48:23.942Z,16.40
2018-08-08T09:50:50.990Z,17.55
2018-08-08T09:53:27.972Z,16.50
2018-08-08T09:55:59.632Z,17.08
2018-08-08T09:58:35.692Z,15.63
2018-08-08T10:01:14.775Z,15.50
2018-08-08T10:03:45.609Z,15.45
2018-08-08T10:06:15.982Z,15.38
2018-08-08T10:08:43.132Z,14.98
2018-08-08T10:11:13.870Z,15.35
2018-08-08T10:16:22.920Z,19.05
2018-08-08T10:18:50.588Z,16.50
2018-08-08T10:21:17.626Z,15.60
2018-08-08T10:23:45.071Z,15.20
2018-08-08T10:26:12.444Z,17.48
2018-08-08T10:28:39.596Z,15.77
2018-08-08T10:31:06.843Z,14.75
2018-08-08T10:33:33.941Z,16.00
2018-08-08T10:36:01.048Z,15.20
2018-08-08T10:38:28.091Z,14.98
2018-08-08T10:40:55.245Z,15.15
2018-08-08T10:43:22.462Z,14.40
2018-08-08T10:45:49.444Z,17.27
2018-08-08T10:48:16.496Z,13.80
2018-08-08T10:50:44.125Z,15.20
2018-08-08T10:53:11.411Z,14.40
2018-08-08T10:55:39.544Z,13.45
2018-08-08T10:58:06.639Z,14.93
2018-08-08T11:00:33.786Z,14.65
2018-08-08T11:03:00.839Z,15.38
2018-08-08T11:05:27.876Z,15.02
2018-08-08T11:07:54.989Z,14.05
2018-08-08T11:10:22.278Z,14.70
2018-08-08T11:12:49.334Z,13.52
2018-08-08T11:15:16.383Z,14.40
2018-08-08T11:17:43.426Z,14.40
2018-08-08T11:20:12.317Z,16.77
2018-08-08T11:22:39.371Z,15.25
2018-08-08T11:25:06.412Z,15.98
2018-08-08T11:27:33.563Z,17.02
2018-08-08T11:30:00.611Z,15.38
2018-08-08T11:32:27.731Z,15.85
2018-08-08T11:34:55.431Z,17.00
2018-08-08T11:37:22.473Z,15.13
2018-08-08T11:39:49.624Z,15.30
2018-08-08T11:42:16.775Z,15.82
2018-08-08T11:44:43.823Z,16.92
2018-08-08T11:47:10.876Z,16.35
2018-08-08T11:49:37.919Z,16.10
2018-08-08T11:52:05.017Z,15.18
2018-08-08T11:54:32.328Z,14.85
2018-08-08T11:56:59.372Z,14.43
2018-08-08T11:59:26.412Z,15.25
2018-08-08T12:01:53.685Z,14.63
2018-08-08T12:04:20.723Z,14.25
2018-08-08T12:06:49.574Z,14.80
2018-08-08T12:09:17.871Z,13.77
2018-08-08T12:11:45.112Z,14.43
2018-08-08T12:14:13.086Z,13.70
2018-08-08T12:16:40.176Z,12.82
2018-08-08T12:19:12.942Z,13.98
2018-08-08T12:21:39.990Z,14.45
2018-08-08T12:24:07.142Z,13.85
2018-08-08T12:26:34.194Z,14.60
2018-08-08T12:29:02.569Z,13.27
2018-08-08T12:31:29.756Z,13.93
2018-08-08T12:33:56.971Z,13.85
2018-08-08T12:36:24.197Z,13.25
2018-08-08T12:38:51.274Z,13.18
2018-08-08T12:41:18.327Z,13.60
2018-08-08T12:43:46.401Z,13.30
2018-08-08T12:46:13.464Z,12.98
2018-08-08T12:48:40.593Z,13.55
2018-08-08T12:51:07.774Z,12.77
2018-08-08T12:53:36.230Z,14.85
2018-08-08T12:56:03.756Z,12.43
2018-08-08T12:58:30.731Z,13.15
2018-08-08T13:00:57.946Z,13.75
2018-08-08T13:03:25.035Z,13.30
2018-08-08T13:05:52.082Z,13.43
2018-08-08T13:08:19.197Z,13.25
2018-08-08T13:10:46.288Z,12.93
2018-08-08T13:13:13.307Z,14.05
2018-08-08T13:15:40.379Z,13.62
2018-08-08T13:18:07.433Z,12.60
2018-08-08T13:20:34.683Z,13.55
2018-08-08T13:23:01.737Z,13.13
2018-08-08T13:25:29.903Z,13.23
2018-08-08T13:27:57.055Z,15.30
2018-08-08T13:30:24.415Z,13.27
2018-08-08T13:32:51.666Z,13.75
2018-08-08T13:35:18.718Z,12.80
2018-08-08T13:37:45.760Z,14.55
2018-08-08T13:40:13.732Z,13.68
2018-08-08T13:42:40.786Z,13.18
2018-08-08T13:45:07.937Z,16.33
2018-08-08T13:47:35.594Z,12.93
2018-08-08T13:50:02.647Z,13.23
2018-08-08T13:52:29.899Z,13.60
2018-08-08T13:54:57.252Z,13.88
2018-08-08T13:57:25.017Z,13.45
2018-08-08T13:59:52.072Z,13.68
2018-08-08T14:02:19.113Z,13.07
2018-08-08T14:04:46.159Z,13.45
2018-08-08T14:07:13.214Z,12.93
2018-08-08T14:09:40.270Z,13.07
2018-08-08T14:12:07.359Z,13.75
2018-08-08T14:14:36.820Z,13.50
2018-08-08T14:17:03.859Z,12.93
2018-08-08T14:19:31.012Z,14.27
2018-08-08T14:21:59.903Z,13.95
2018-08-08T14:24:27.054Z,14.15
2018-08-08T14:26:54.189Z,13.60
2018-08-08T14:29:21.259Z,14.43
2018-08-08T14:31:48.303Z,13.50
2018-08-08T14:34:15.350Z,14.50
2018-08-08T14:36:45.535Z,14.38
2018-08-08T14:39:12.725Z,14.02
2018-08-08T14:41:40.009Z,14.15
2018-08-08T14:44:07.128Z,14.02
2018-08-08T14:46:42.488Z,14.73
2018-08-08T14:49:10.533Z,17.48
2018-08-08T14:51:38.308Z,15.02
2018-08-08T14:54:07.914Z,14.77
2018-08-08T14:56:34.970Z,15.60
2018-08-08T14:59:02.222Z,15.40
2018-08-08T15:01:29.275Z,14.87
2018-08-08T15:03:56.317Z,14.87
2018-08-08T15:06:23.465Z,14.05
2018-08-08T15:08:51.645Z,14.32
2018-08-08T15:11:18.757Z,14.05
2018-08-08T15:13:45.949Z,14.38
2018-08-08T15:16:13.503Z,15.10
2018-08-08T15:18:40.653Z,15.02
2018-08-08T15:21:07.804Z,15.20
2018-08-08T15:23:34.960Z,14.05
2018-08-08T15:26:02.010Z,14.40
2018-08-08T15:28:29.160Z,14.43
2018-08-08T15:30:56.204Z,15.63
2018-08-08T15:33:23.251Z,14.70
2018-08-08T15:35:50.305Z,17.12
2018-08-08T15:38:18.070Z,18.50
2018-08-08T15:40:45.114Z,14.50
2018-08-08T15:43:12.165Z,15.60
2018-08-08T15:45:40.101Z,16.08
2018-08-08T15:48:07.183Z,19.30
2018-08-08T15:50:35.227Z,15.68
2018-08-08T15:53:02.315Z,15.43
2018-08-08T15:55:29.665Z,15.25
2018-08-08T15:57:57.904Z,14.40
2018-08-08T16:00:25.085Z,14.60
2018-08-08T16:02:52.134Z,14.77
2018-08-08T16:05:19.193Z,14.63
2018-08-08T16:07:46.339Z,16.40
2018-08-08T16:10:14.201Z,16.02
2018-08-08T16:12:41.352Z,15.57
2018-08-08T16:15:08.578Z,19.35
2018-08-08T16:17:35.655Z,15.45
2018-08-08T16:20:02.948Z,14.73
2018-08-08T16:22:29.957Z,14.23
2018-08-08T16:24:57.010Z,15.68
2018-08-08T16:27:24.053Z,15.52
2018-08-08T16:29:51.102Z,17.55
2018-08-08T16:32:18.141Z,15.40
2018-08-08T16:34:45.204Z,16.37
2018-08-08T16:37:12.353Z,15.98
2018-08-08T16:39:39.402Z,15.60
2018-08-08T16:42:06.454Z,14.35
2018-08-08T16:44:37.456Z,15.60
2018-08-08T16:47:04.951Z,16.60
2018-08-08T16:49:31.995Z,15.57
2018-08-08T16:51:59.051Z,15.80
2018-08-08T16:54:26.202Z,15.68
2018-08-08T16:56:53.243Z,16.87
2018-08-08T16:59:20.395Z,15.60
2018-08-08T17:01:47.442Z,15.73
2018-08-08T17:04:14.496Z,15.45
2018-08-08T17:06:41.745Z,16.12
2018-08-08T17:09:08.765Z,16.50
2018-08-08T17:11:35.841Z,16.52
2018-08-08T17:14:02.890Z,16.52
2018-08-08T17:16:30.143Z,16.15
2018-08-08T17:18:57.191Z,16.80
2018-08-08T17:21:24.342Z,17.25
2018-08-08T17:23:51.396Z,16.33
2018-08-08T17:26:18.440Z,16.35
2018-08-08T17:28:45.589Z,16.05
2018-08-08T17:31:12.641Z,17.48
2018-08-08T17:33:39.692Z,15.23
2018-08-08T17:36:06.844Z,16.23
2018-08-08T17:38:33.886Z,16.83
2018-08-08T17:41:01.037Z,16.52
2018-08-08T17:43:28.177Z,16.17
2018-08-08T17:45:55.339Z,16.40
2018-08-08T17:48:22.387Z,17.12
2018-08-08T17:50:49.644Z,19.25
2018-08-08T17:53:16.794Z,17.55
2018-08-08T17:55:43.841Z,17.12
2018-08-08T17:58:10.894Z,17.12
2018-08-08T18:00:38.243Z,18.02
2018-08-08T18:03:05.503Z,17.40
2018-08-08T18:05:32.755Z,17.67
2018-08-08T18:07:59.903Z,18.85
2018-08-08T18:10:26.955Z,20.88
2018-08-08T18:12:54.000Z,21.23
2018-08-08T18:15:21.046Z,20.33
2018-08-08T18:17:48.198Z,20.85
2018-08-08T18:20:15.253Z,19.52
2018-08-08T18:22:42.408Z,19.10
2018-08-08T18:25:09.447Z,20.73
2018-08-08T18:27:36.748Z,21.33
2018-08-08T18:30:03.859Z,19.17
2018-08-08T18:32:31.007Z,19.83
2018-08-08T18:34:58.052Z,19.25
2018-08-08T18:37:25.203Z,18.37
2018-08-08T18:39:52.354Z,19.85
2018-08-08T18:42:19.710Z,19.33
2018-08-08T18:44:46.762Z,20.20
2018-08-08T18:47:13.805Z,23.83
2018-08-08T18:49:41.264Z,23.25
2018-08-08T18:52:08.417Z,19.98
2018-08-08T18:54:35.771Z,18.80
2018-08-08T18:57:03.231Z,18.15
2018-08-08T18:59:30.537Z,19.62
2018-08-08T19:01:57.741Z,18.48
2018-08-08T19:04:25.198Z,18.40
2018-08-08T19:06:52.351Z,18.48
2018-08-08T19:09:19.468Z,21.12
2018-08-08T19:11:48.189Z,17.98
2018-08-08T19:14:15.256Z,19.45
2018-08-08T19:16:42.279Z,19.27
2018-08-08T19:19:10.761Z,19.80
2018-08-08T19:21:37.809Z,19.40
2018-08-08T19:24:04.863Z,20.17
2018-08-08T19:26:33.358Z,20.42
2018-08-08T19:29:00.395Z,18.58
2018-08-08T19:31:27.672Z,20.45
2018-08-08T19:33:56.303Z,19.92
2018-08-08T19:36:23.386Z,19.80
2018-08-08T19:38:50.430Z,19.30
2018-08-08T19:41:17.582Z,19.15
2018-08-08T19:43:44.729Z,19.23
2018-08-08T19:46:11.880Z,21.02
2018-08-08T19:48:38.927Z,19.35
2018-08-08T19:51:05.987Z,20.80
2018-08-08T19:53:33.197Z,20.90
2018-08-08T19:56:00.288Z,19.67
2018-08-08T19:58:27.547Z,21.40
2018-08-08T20:00:54.588Z,20.17
2018-08-08T20:03:22.626Z,21.83
2018-08-08T20:05:49.700Z,20.52
2018-08-08T20:08:17.774Z,21.23
2018-08-08T20:10:45.033Z,19.65
2018-08-08T20:13:12.079Z,20.05
2018-08-08T20:15:39.739Z,19.98
2018-08-08T20:18:06.798Z,19.60
2018-08-08T20:20:33.943Z,21.25
2018-08-08T20:23:00.987Z,19.77
2018-08-08T20:25:28.246Z,19.37
2018-08-08T20:27:55.767Z,20.75
2018-08-08T20:30:22.953Z,20.95
2018-08-08T20:32:50.006Z,19.08
2018-08-08T20:35:17.050Z,19.77
2018-08-08T20:37:44.311Z,18.37
2018-08-08T20:40:11.351Z,18.85
2018-08-08T20:42:38.506Z,19.85
2018-08-08T20:45:06.271Z,20.17
2018-08-08T20:47:33.418Z,19.92
2018-08-08T20:50:00.469Z,22.75
2018-08-08T20:52:27.521Z,23.20
2018-08-08T20:55:07.781Z,21.85
2018-08-08T20:57:48.936Z,22.55
2018-08-08T21:00:16.106Z,22.48
2018-08-08T21:02:43.159Z,20.73
2018-08-08T21:05:10.407Z,22.23
2018-08-08T21:07:37.461Z,27.48
2018-08-08T21:10:04.505Z,21.73
2018-08-08T21:12:31.555Z,23.23
2018-08-08T21:15:00.776Z,23.87
2018-08-08T21:17:27.805Z,28.23
2018-08-08T21:19:54.849Z,29.12
2018-08-08T21:22:21.903Z,26.67
2018-08-08T21:24:49.769Z,29.17
2018-08-08T21:27:16.821Z,28.65
2018-08-08T21:29:43.863Z,24.83
2018-08-08T21:32:10.913Z,24.52
2018-08-08T21:34:37.966Z,28.40
2018-08-08T21:37:05.732Z,27.42
2018-08-08T21:39:32.852Z,28.33
2018-08-08T21:41:59.926Z,27.80
2018-08-08T21:44:28.612Z,27.55
2018-08-08T21:46:55.666Z,23.95
2018-08-08T21:49:22.812Z,23.98
2018-08-08T21:51:49.966Z,24.33
2018-08-08T21:54:37.798Z,29.08
2018-08-08T22:00:17.569Z,23.23
2018-08-08T22:02:50.461Z,21.17
2018-08-08T22:05:23.543Z,21.15
2018-08-08T22:07:56.642Z,20.23
2018-08-08T22:10:29.826Z,18.58
2018-08-08T22:13:12.543Z,17.73
2018-08-08T22:15:47.275Z,18.12
2018-08-08T22:18:16.061Z,16.98
2018-08-08T22:20:43.199Z,16.23
2018-08-08T22:23:11.800Z,15.93
2018-08-08T22:25:38.848Z,15.23
2018-08-08T22:28:07.742Z,16.80
2018-08-08T22:30:36.885Z,14.20
2018-08-08T22:33:05.017Z,14.32
2018-08-08T22:35:34.111Z,13.00
2018-08-08T22:38:01.257Z,12.50
2018-08-08T22:40:28.407Z,14.05
2018-08-08T22:42:56.077Z,13.00
2018-08-08T22:45:24.152Z,13.43
2018-08-08T22:47:52.447Z,13.85
2018-08-08T22:50:19.572Z,13.57
2018-08-08T22:52:47.543Z,13.40
2018-08-08T22:55:14.679Z,13.50
2018-08-08T22:57:41.787Z,13.70
2018-08-08T23:00:08.855Z,14.20
2018-08-08T23:02:35.956Z,12.43
2018-08-08T23:05:03.034Z,12.00
2018-08-08T23:07:30.079Z,12.23
2018-08-08T23:09:57.133Z,12.10
2018-08-08T23:12:24.176Z,12.90
2018-08-08T23:14:51.224Z,14.25
2018-08-08T23:17:18.280Z,12.73
2018-08-08T23:19:46.043Z,13.43
2018-08-08T23:22:13.194Z,11.80
2018-08-08T23:24:40.239Z,13.65
2018-08-08T23:27:07.330Z,11.50
2018-08-08T23:29:34.479Z,15.35
2018-08-08T23:32:01.533Z,11.65
2018-08-08T23:34:28.580Z,11.18
2018-08-08T23:36:55.633Z,10.85
2018-08-08T23:39:22.776Z,11.00
2018-08-08T23:41:49.830Z,10.98
2018-08-08T23:44:16.871Z,10.75
2018-08-08T23:46:43.922Z,10.68
2018-08-08T23:49:11.071Z,11.00
2018-08-08T23:51:38.247Z,13.45
2018-08-08T23:54:05.280Z,11.43
2018-08-08T23:56:32.324Z,11.23
2018-08-08T23:58:59.370Z,10.70
